sensor_id;sensor_type;location;lat;lon;timestamp;temperature;humidity
65044;DHT22;51617;48.158;16.464;2023-03-15T00:00:40;10.30;74.70
65044;DHT22;51617;48.158;16.464;2023-03-15T00:03:07;10.20;74.40
65044;DHT22;51617;48.158;16.464;2023-03-15T00:05:33;10.20;74.80
65044;DHT22;51617;48.158;16.464;2023-03-15T00:07:59;10.20;74.80
65044;DHT22;51617;48.158;16.464;2023-03-15T00:10:27;10.20;74.80
65044;DHT22;51617;48.158;16.464;2023-03-15T00:12:53;10.20;74.90
65044;DHT22;51617;48.158;16.464;2023-03-15T00:15:20;10.20;75.00
65044;DHT22;51617;48.158;16.464;2023-03-15T00:17:46;10.20;75.20
65044;DHT22;51617;48.158;16.464;2023-03-15T00:20:12;10.10;75.10
65044;DHT22;51617;48.158;16.464;2023-03-15T00:22:43;10.20;75.10
65044;DHT22;51617;48.158;16.464;2023-03-15T00:25:09;10.20;74.30
65044;DHT22;51617;48.158;16.464;2023-03-15T00:27:34;10.20;74.30
65044;DHT22;51617;48.158;16.464;2023-03-15T00:30:00;10.20;74.30
65044;DHT22;51617;48.158;16.464;2023-03-15T00:32:26;10.20;74.30
65044;DHT22;51617;48.158;16.464;2023-03-15T00:34:51;10.20;74.30
65044;DHT22;51617;48.158;16.464;2023-03-15T00:37:20;10.20;74.40
65044;DHT22;51617;48.158;16.464;2023-03-15T00:39:46;10.20;74.00
65044;DHT22;51617;48.158;16.464;2023-03-15T00:42:13;10.20;73.90
65044;DHT22;51617;48.158;16.464;2023-03-15T00:44:43;10.20;73.60
65044;DHT22;51617;48.158;16.464;2023-03-15T00:47:13;10.30;72.80
65044;DHT22;51617;48.158;16.464;2023-03-15T00:49:40;10.30;72.30
65044;DHT22;51617;48.158;16.464;2023-03-15T00:52:06;10.30;73.10
65044;DHT22;51617;48.158;16.464;2023-03-15T00:54:32;10.30;72.50
65044;DHT22;51617;48.158;16.464;2023-03-15T00:57:01;10.30;72.40
65044;DHT22;51617;48.158;16.464;2023-03-15T00:59:28;10.40;72.20
65044;DHT22;51617;48.158;16.464;2023-03-15T01:02:08;10.40;72.20
65044;DHT22;51617;48.158;16.464;2023-03-15T01:04:34;10.40;72.00
65044;DHT22;51617;48.158;16.464;2023-03-15T01:06:59;10.40;72.00
65044;DHT22;51617;48.158;16.464;2023-03-15T01:09:25;10.40;72.00
65044;DHT22;51617;48.158;16.464;2023-03-15T01:11:51;10.50;71.90
65044;DHT22;51617;48.158;16.464;2023-03-15T01:14:16;10.50;71.90
65044;DHT22;51617;48.158;16.464;2023-03-15T01:16:44;10.50;71.80
65044;DHT22;51617;48.158;16.464;2023-03-15T01:19:11;10.50;72.00
65044;DHT22;51617;48.158;16.464;2023-03-15T01:21:37;10.40;71.70
65044;DHT22;51617;48.158;16.464;2023-03-15T01:24:03;10.40;72.20
65044;DHT22;51617;48.158;16.464;2023-03-15T01:26:30;10.30;80.10
65044;DHT22;51617;48.158;16.464;2023-03-15T01:28:55;10.00;83.70
65044;DHT22;51617;48.158;16.464;2023-03-15T01:31:24;9.70;85.50
65044;DHT22;51617;48.158;16.464;2023-03-15T01:33:51;9.60;86.80
65044;DHT22;51617;48.158;16.464;2023-03-15T01:36:17;9.40;87.00
65044;DHT22;51617;48.158;16.464;2023-03-15T01:38:43;9.10;87.30
65044;DHT22;51617;48.158;16.464;2023-03-15T01:41:13;9.00;87.60
65044;DHT22;51617;48.158;16.464;2023-03-15T01:43:39;8.90;87.50
65044;DHT22;51617;48.158;16.464;2023-03-15T01:46:24;8.80;86.50
65044;DHT22;51617;48.158;16.464;2023-03-15T01:48:54;8.60;86.00
65044;DHT22;51617;48.158;16.464;2023-03-15T01:51:43;8.60;86.30
65044;DHT22;51617;48.158;16.464;2023-03-15T01:57:11;8.40;85.90
65044;DHT22;51617;48.158;16.464;2023-03-15T01:59:50;8.30;86.30
65044;DHT22;51617;48.158;16.464;2023-03-15T02:02:17;8.20;86.40
65044;DHT22;51617;48.158;16.464;2023-03-15T02:04:49;8.10;86.60
65044;DHT22;51617;48.158;16.464;2023-03-15T02:07:16;8.10;86.70
65044;DHT22;51617;48.158;16.464;2023-03-15T02:10:03;8.10;86.80
65044;DHT22;51617;48.158;16.464;2023-03-15T02:12:31;8.10;86.60
65044;DHT22;51617;48.158;16.464;2023-03-15T02:15:00;8.00;86.60
65044;DHT22;51617;48.158;16.464;2023-03-15T02:17:39;8.00;86.80
65044;DHT22;51617;48.158;16.464;2023-03-15T02:22:55;7.90;87.00
65044;DHT22;51617;48.158;16.464;2023-03-15T02:25:35;7.80;87.40
65044;DHT22;51617;48.158;16.464;2023-03-15T02:28:05;7.80;87.60
65044;DHT22;51617;48.158;16.464;2023-03-15T02:30:30;7.70;87.50
65044;DHT22;51617;48.158;16.464;2023-03-15T02:32:58;7.80;87.60
65044;DHT22;51617;48.158;16.464;2023-03-15T02:35:31;7.70;87.80
65044;DHT22;51617;48.158;16.464;2023-03-15T02:37:59;7.70;88.00
65044;DHT22;51617;48.158;16.464;2023-03-15T02:40:29;7.70;88.10
65044;DHT22;51617;48.158;16.464;2023-03-15T02:43:01;7.60;88.20
65044;DHT22;51617;48.158;16.464;2023-03-15T02:45:30;7.60;88.40
65044;DHT22;51617;48.158;16.464;2023-03-15T02:47:57;7.60;88.50
65044;DHT22;51617;48.158;16.464;2023-03-15T02:50:23;7.60;88.60
65044;DHT22;51617;48.158;16.464;2023-03-15T02:52:49;7.60;88.60
65044;DHT22;51617;48.158;16.464;2023-03-15T02:55:17;7.60;88.70
65044;DHT22;51617;48.158;16.464;2023-03-15T02:57:44;7.60;88.50
65044;DHT22;51617;48.158;16.464;2023-03-15T03:00:10;7.60;88.40
65044;DHT22;51617;48.158;16.464;2023-03-15T03:02:41;7.60;88.20
65044;DHT22;51617;48.158;16.464;2023-03-15T03:05:08;7.60;88.30
65044;DHT22;51617;48.158;16.464;2023-03-15T03:07:34;7.60;88.10
65044;DHT22;51617;48.158;16.464;2023-03-15T03:10:00;7.60;88.10
65044;DHT22;51617;48.158;16.464;2023-03-15T03:12:26;7.50;87.70
65044;DHT22;51617;48.158;16.464;2023-03-15T03:14:51;7.50;88.00
65044;DHT22;51617;48.158;16.464;2023-03-15T03:17:17;7.50;87.90
65044;DHT22;51617;48.158;16.464;2023-03-15T03:19:43;7.50;87.00
65044;DHT22;51617;48.158;16.464;2023-03-15T03:22:09;7.40;86.90
65044;DHT22;51617;48.158;16.464;2023-03-15T03:24:37;7.40;86.20
65044;DHT22;51617;48.158;16.464;2023-03-15T03:27:03;7.40;86.40
65044;DHT22;51617;48.158;16.464;2023-03-15T03:29:29;7.40;86.20
65044;DHT22;51617;48.158;16.464;2023-03-15T03:31:55;7.40;86.00
65044;DHT22;51617;48.158;16.464;2023-03-15T03:34:20;7.40;85.80
65044;DHT22;51617;48.158;16.464;2023-03-15T03:36:46;7.30;85.50
65044;DHT22;51617;48.158;16.464;2023-03-15T03:39:13;7.30;85.40
65044;DHT22;51617;48.158;16.464;2023-03-15T03:41:38;7.30;85.80
65044;DHT22;51617;48.158;16.464;2023-03-15T03:44:04;7.30;86.10
65044;DHT22;51617;48.158;16.464;2023-03-15T03:46:30;7.20;85.90
65044;DHT22;51617;48.158;16.464;2023-03-15T03:48:56;7.30;85.80
65044;DHT22;51617;48.158;16.464;2023-03-15T03:51:22;7.30;85.70
65044;DHT22;51617;48.158;16.464;2023-03-15T03:53:47;7.20;85.80
65044;DHT22;51617;48.158;16.464;2023-03-15T03:56:13;7.10;86.20
65044;DHT22;51617;48.158;16.464;2023-03-15T03:58:39;7.10;86.70
65044;DHT22;51617;48.158;16.464;2023-03-15T04:01:05;7.10;86.90
65044;DHT22;51617;48.158;16.464;2023-03-15T04:03:30;7.20;86.70
65044;DHT22;51617;48.158;16.464;2023-03-15T04:05:57;7.10;86.50
65044;DHT22;51617;48.158;16.464;2023-03-15T04:08:24;7.00;86.80
65044;DHT22;51617;48.158;16.464;2023-03-15T04:10:55;7.00;86.90
65044;DHT22;51617;48.158;16.464;2023-03-15T04:13:22;7.10;86.80
65044;DHT22;51617;48.158;16.464;2023-03-15T04:15:48;7.10;86.80
65044;DHT22;51617;48.158;16.464;2023-03-15T04:18:14;7.10;86.40
65044;DHT22;51617;48.158;16.464;2023-03-15T04:20:40;7.10;86.30
65044;DHT22;51617;48.158;16.464;2023-03-15T04:23:15;7.10;85.60
65044;DHT22;51617;48.158;16.464;2023-03-15T04:25:42;7.10;84.80
65044;DHT22;51617;48.158;16.464;2023-03-15T04:28:08;7.00;84.30
65044;DHT22;51617;48.158;16.464;2023-03-15T04:30:37;7.10;84.40
65044;DHT22;51617;48.158;16.464;2023-03-15T04:33:03;7.00;84.40
65044;DHT22;51617;48.158;16.464;2023-03-15T04:35:30;7.00;82.70
65044;DHT22;51617;48.158;16.464;2023-03-15T04:37:57;7.00;82.70
65044;DHT22;51617;48.158;16.464;2023-03-15T04:40:23;7.00;82.20
65044;DHT22;51617;48.158;16.464;2023-03-15T04:42:50;7.00;82.40
65044;DHT22;51617;48.158;16.464;2023-03-15T04:45:23;7.00;81.60
65044;DHT22;51617;48.158;16.464;2023-03-15T04:47:49;7.00;81.70
65044;DHT22;51617;48.158;16.464;2023-03-15T04:50:16;7.00;81.60
65044;DHT22;51617;48.158;16.464;2023-03-15T04:52:41;7.00;81.50
65044;DHT22;51617;48.158;16.464;2023-03-15T04:55:08;7.00;81.30
65044;DHT22;51617;48.158;16.464;2023-03-15T04:57:34;7.00;80.70
65044;DHT22;51617;48.158;16.464;2023-03-15T05:00:00;6.90;80.00
65044;DHT22;51617;48.158;16.464;2023-03-15T05:02:26;6.80;79.70
65044;DHT22;51617;48.158;16.464;2023-03-15T05:04:52;6.70;80.40
65044;DHT22;51617;48.158;16.464;2023-03-15T05:07:17;6.80;80.10
65044;DHT22;51617;48.158;16.464;2023-03-15T05:09:43;6.80;80.00
65044;DHT22;51617;48.158;16.464;2023-03-15T05:12:11;6.80;80.40
65044;DHT22;51617;48.158;16.464;2023-03-15T05:14:37;6.70;78.80
65044;DHT22;51617;48.158;16.464;2023-03-15T05:17:03;6.60;78.70
65044;DHT22;51617;48.158;16.464;2023-03-15T05:19:29;6.60;78.40
65044;DHT22;51617;48.158;16.464;2023-03-15T05:21:59;6.60;83.20
65044;DHT22;51617;48.158;16.464;2023-03-15T05:24:25;6.70;80.20
65044;DHT22;51617;48.158;16.464;2023-03-15T05:26:51;6.70;77.20
65044;DHT22;51617;48.158;16.464;2023-03-15T05:29:19;6.60;76.80
65044;DHT22;51617;48.158;16.464;2023-03-15T05:31:46;6.60;77.20
65044;DHT22;51617;48.158;16.464;2023-03-15T05:34:12;6.60;76.50
65044;DHT22;51617;48.158;16.464;2023-03-15T05:36:37;6.60;76.60
65044;DHT22;51617;48.158;16.464;2023-03-15T05:39:03;6.50;76.60
65044;DHT22;51617;48.158;16.464;2023-03-15T05:41:30;6.50;76.50
65044;DHT22;51617;48.158;16.464;2023-03-15T05:43:56;6.50;76.40
65044;DHT22;51617;48.158;16.464;2023-03-15T05:46:22;6.40;76.50
65044;DHT22;51617;48.158;16.464;2023-03-15T05:48:48;6.50;76.80
65044;DHT22;51617;48.158;16.464;2023-03-15T05:51:14;6.50;76.70
65044;DHT22;51617;48.158;16.464;2023-03-15T05:53:40;6.50;76.50
65044;DHT22;51617;48.158;16.464;2023-03-15T05:56:06;6.60;75.60
65044;DHT22;51617;48.158;16.464;2023-03-15T05:58:32;6.60;75.80
65044;DHT22;51617;48.158;16.464;2023-03-15T06:00:58;6.60;75.60
65044;DHT22;51617;48.158;16.464;2023-03-15T06:03:26;6.60;75.00
65044;DHT22;51617;48.158;16.464;2023-03-15T06:05:52;6.50;74.80
65044;DHT22;51617;48.158;16.464;2023-03-15T06:08:17;6.50;75.40
65044;DHT22;51617;48.158;16.464;2023-03-15T06:10:43;6.60;75.10
65044;DHT22;51617;48.158;16.464;2023-03-15T06:13:09;6.60;74.50
65044;DHT22;51617;48.158;16.464;2023-03-15T06:15:34;6.60;74.50
65044;DHT22;51617;48.158;16.464;2023-03-15T06:18:00;6.60;74.40
65044;DHT22;51617;48.158;16.464;2023-03-15T06:20:25;6.60;74.40
65044;DHT22;51617;48.158;16.464;2023-03-15T06:22:51;6.60;74.60
65044;DHT22;51617;48.158;16.464;2023-03-15T06:25:17;6.70;74.60
65044;DHT22;51617;48.158;16.464;2023-03-15T06:27:43;6.70;74.50
65044;DHT22;51617;48.158;16.464;2023-03-15T06:30:09;6.70;74.10
65044;DHT22;51617;48.158;16.464;2023-03-15T06:32:35;6.70;74.20
65044;DHT22;51617;48.158;16.464;2023-03-15T06:35:01;6.70;73.20
65044;DHT22;51617;48.158;16.464;2023-03-15T06:37:27;6.70;73.90
65044;DHT22;51617;48.158;16.464;2023-03-15T06:39:52;6.70;72.40
65044;DHT22;51617;48.158;16.464;2023-03-15T06:42:19;6.70;72.90
65044;DHT22;51617;48.158;16.464;2023-03-15T06:44:44;6.80;72.70
65044;DHT22;51617;48.158;16.464;2023-03-15T06:47:12;6.90;72.60
65044;DHT22;51617;48.158;16.464;2023-03-15T06:49:38;6.90;72.40
65044;DHT22;51617;48.158;16.464;2023-03-15T06:52:04;6.90;72.30
65044;DHT22;51617;48.158;16.464;2023-03-15T06:54:30;6.90;72.10
65044;DHT22;51617;48.158;16.464;2023-03-15T06:56:56;6.90;72.10
65044;DHT22;51617;48.158;16.464;2023-03-15T06:59:22;7.00;71.90
65044;DHT22;51617;48.158;16.464;2023-03-15T07:01:48;6.90;71.70
65044;DHT22;51617;48.158;16.464;2023-03-15T07:04:14;6.90;71.80
65044;DHT22;51617;48.158;16.464;2023-03-15T07:06:40;7.00;71.50
65044;DHT22;51617;48.158;16.464;2023-03-15T07:09:06;6.90;70.80
65044;DHT22;51617;48.158;16.464;2023-03-15T07:11:32;7.00;70.90
65044;DHT22;51617;48.158;16.464;2023-03-15T07:13:58;7.00;70.90
65044;DHT22;51617;48.158;16.464;2023-03-15T07:16:24;7.10;70.90
65044;DHT22;51617;48.158;16.464;2023-03-15T07:18:50;7.10;69.80
65044;DHT22;51617;48.158;16.464;2023-03-15T07:21:17;7.00;70.10
65044;DHT22;51617;48.158;16.464;2023-03-15T07:23:43;7.00;69.90
65044;DHT22;51617;48.158;16.464;2023-03-15T07:26:09;7.10;69.80
65044;DHT22;51617;48.158;16.464;2023-03-15T07:28:34;7.10;68.60
65044;DHT22;51617;48.158;16.464;2023-03-15T07:31:03;7.20;68.80
65044;DHT22;51617;48.158;16.464;2023-03-15T07:33:30;7.20;69.00
65044;DHT22;51617;48.158;16.464;2023-03-15T07:35:57;7.30;68.80
65044;DHT22;51617;48.158;16.464;2023-03-15T07:38:25;7.30;68.60
65044;DHT22;51617;48.158;16.464;2023-03-15T07:40:51;7.40;67.50
65044;DHT22;51617;48.158;16.464;2023-03-15T07:43:17;7.30;67.90
65044;DHT22;51617;48.158;16.464;2023-03-15T07:45:43;7.30;68.00
65044;DHT22;51617;48.158;16.464;2023-03-15T07:48:09;7.40;68.30
65044;DHT22;51617;48.158;16.464;2023-03-15T07:50:35;7.30;67.90
65044;DHT22;51617;48.158;16.464;2023-03-15T07:53:02;7.30;67.60
65044;DHT22;51617;48.158;16.464;2023-03-15T07:55:28;7.30;66.70
65044;DHT22;51617;48.158;16.464;2023-03-15T07:57:54;7.30;67.20
65044;DHT22;51617;48.158;16.464;2023-03-15T08:00:20;7.40;67.50
65044;DHT22;51617;48.158;16.464;2023-03-15T08:02:47;7.40;67.40
65044;DHT22;51617;48.158;16.464;2023-03-15T08:05:12;7.50;67.40
65044;DHT22;51617;48.158;16.464;2023-03-15T08:07:38;7.50;67.30
65044;DHT22;51617;48.158;16.464;2023-03-15T08:10:05;7.60;66.90
65044;DHT22;51617;48.158;16.464;2023-03-15T08:12:31;7.60;66.80
65044;DHT22;51617;48.158;16.464;2023-03-15T08:14:57;7.60;67.00
65044;DHT22;51617;48.158;16.464;2023-03-15T08:17:23;7.70;67.20
65044;DHT22;51617;48.158;16.464;2023-03-15T08:19:49;7.70;67.20
65044;DHT22;51617;48.158;16.464;2023-03-15T08:22:14;7.70;65.70
65044;DHT22;51617;48.158;16.464;2023-03-15T08:24:40;7.60;65.90
65044;DHT22;51617;48.158;16.464;2023-03-15T08:27:06;7.60;66.50
65044;DHT22;51617;48.158;16.464;2023-03-15T08:29:32;7.70;65.90
65044;DHT22;51617;48.158;16.464;2023-03-15T08:31:58;7.70;66.20
65044;DHT22;51617;48.158;16.464;2023-03-15T08:34:24;7.70;66.20
65044;DHT22;51617;48.158;16.464;2023-03-15T08:36:49;7.80;66.70
65044;DHT22;51617;48.158;16.464;2023-03-15T08:39:15;7.80;66.10
65044;DHT22;51617;48.158;16.464;2023-03-15T08:41:41;7.80;65.50
65044;DHT22;51617;48.158;16.464;2023-03-15T08:44:08;7.80;65.70
65044;DHT22;51617;48.158;16.464;2023-03-15T08:46:34;7.80;66.10
65044;DHT22;51617;48.158;16.464;2023-03-15T08:49:00;7.80;65.90
65044;DHT22;51617;48.158;16.464;2023-03-15T08:51:26;7.80;66.20
65044;DHT22;51617;48.158;16.464;2023-03-15T08:53:52;7.90;66.40
65044;DHT22;51617;48.158;16.464;2023-03-15T08:56:18;8.00;66.30
65044;DHT22;51617;48.158;16.464;2023-03-15T08:58:44;8.00;65.20
65044;DHT22;51617;48.158;16.464;2023-03-15T09:01:13;8.00;65.30
65044;DHT22;51617;48.158;16.464;2023-03-15T09:03:40;8.00;65.40
65044;DHT22;51617;48.158;16.464;2023-03-15T09:06:07;8.10;64.80
65044;DHT22;51617;48.158;16.464;2023-03-15T09:08:33;8.20;64.60
65044;DHT22;51617;48.158;16.464;2023-03-15T09:10:59;8.30;63.80
65044;DHT22;51617;48.158;16.464;2023-03-15T09:13:28;8.30;63.80
65044;DHT22;51617;48.158;16.464;2023-03-15T09:15:55;8.30;63.30
65044;DHT22;51617;48.158;16.464;2023-03-15T09:18:21;8.30;63.40
65044;DHT22;51617;48.158;16.464;2023-03-15T09:20:47;8.30;63.10
65044;DHT22;51617;48.158;16.464;2023-03-15T09:23:13;8.30;62.40
65044;DHT22;51617;48.158;16.464;2023-03-15T09:25:39;8.40;63.20
65044;DHT22;51617;48.158;16.464;2023-03-15T09:28:07;8.60;62.50
65044;DHT22;51617;48.158;16.464;2023-03-15T09:30:35;8.60;62.00
65044;DHT22;51617;48.158;16.464;2023-03-15T09:33:01;8.50;62.30
65044;DHT22;51617;48.158;16.464;2023-03-15T09:35:27;8.50;62.50
65044;DHT22;51617;48.158;16.464;2023-03-15T09:37:52;8.50;61.50
65044;DHT22;51617;48.158;16.464;2023-03-15T09:40:28;8.60;61.90
65044;DHT22;51617;48.158;16.464;2023-03-15T09:45:55;8.70;60.20
65044;DHT22;51617;48.158;16.464;2023-03-15T09:48:43;8.60;60.10
65044;DHT22;51617;48.158;16.464;2023-03-15T09:56:59;8.60;59.30
65044;DHT22;51617;48.158;16.464;2023-03-15T09:59:38;8.70;59.10
65044;DHT22;51617;48.158;16.464;2023-03-15T10:04:51;9.00;59.00
65044;DHT22;51617;48.158;16.464;2023-03-15T10:07:20;9.10;58.20
65044;DHT22;51617;48.158;16.464;2023-03-15T10:09:46;9.20;58.00
65044;DHT22;51617;48.158;16.464;2023-03-15T10:12:20;9.30;57.50
65044;DHT22;51617;48.158;16.464;2023-03-15T10:20:29;9.30;57.90
65044;DHT22;51617;48.158;16.464;2023-03-15T10:23:22;9.20;55.40
65044;DHT22;51617;48.158;16.464;2023-03-15T10:25:52;9.20;55.40
65044;DHT22;51617;48.158;16.464;2023-03-15T10:28:29;9.10;56.50
65044;DHT22;51617;48.158;16.464;2023-03-15T10:30:59;9.10;55.40
65044;DHT22;51617;48.158;16.464;2023-03-15T10:33:30;9.10;56.90
65044;DHT22;51617;48.158;16.464;2023-03-15T10:36:00;9.20;57.00
65044;DHT22;51617;48.158;16.464;2023-03-15T10:38:27;9.30;56.70
65044;DHT22;51617;48.158;16.464;2023-03-15T10:40:54;9.40;56.20
65044;DHT22;51617;48.158;16.464;2023-03-15T10:43:21;9.40;56.80
65044;DHT22;51617;48.158;16.464;2023-03-15T10:46:04;9.40;55.90
65044;DHT22;51617;48.158;16.464;2023-03-15T10:48:34;9.50;55.70
65044;DHT22;51617;48.158;16.464;2023-03-15T10:51:19;9.60;56.80
65044;DHT22;51617;48.158;16.464;2023-03-15T10:56:23;9.80;54.90
65044;DHT22;51617;48.158;16.464;2023-03-15T10:58:51;9.70;54.90
65044;DHT22;51617;48.158;16.464;2023-03-15T11:01:29;9.70;55.70
65044;DHT22;51617;48.158;16.464;2023-03-15T11:04:15;9.70;55.70
65044;DHT22;51617;48.158;16.464;2023-03-15T11:06:46;9.80;56.10
65044;DHT22;51617;48.158;16.464;2023-03-15T11:09:21;9.90;55.40
65044;DHT22;51617;48.158;16.464;2023-03-15T11:11:50;10.00;54.20
65044;DHT22;51617;48.158;16.464;2023-03-15T11:14:17;9.90;52.90
65044;DHT22;51617;48.158;16.464;2023-03-15T11:16:47;10.00;53.00
65044;DHT22;51617;48.158;16.464;2023-03-15T11:19:16;10.10;52.30
65044;DHT22;51617;48.158;16.464;2023-03-15T11:21:44;9.90;52.10
65044;DHT22;51617;48.158;16.464;2023-03-15T11:24:24;10.00;52.00
65044;DHT22;51617;48.158;16.464;2023-03-15T11:26:51;10.10;52.90
65044;DHT22;51617;48.158;16.464;2023-03-15T11:29:25;10.10;52.00
65044;DHT22;51617;48.158;16.464;2023-03-15T11:31:53;10.20;52.10
65044;DHT22;51617;48.158;16.464;2023-03-15T11:37:10;10.30;53.10
65044;DHT22;51617;48.158;16.464;2023-03-15T11:40:15;10.40;52.20
65044;DHT22;51617;48.158;16.464;2023-03-15T11:43:00;10.50;52.50
65044;DHT22;51617;48.158;16.464;2023-03-15T11:45:39;10.50;52.10
65044;DHT22;51617;48.158;16.464;2023-03-15T11:48:15;10.30;52.20
65044;DHT22;51617;48.158;16.464;2023-03-15T11:50:43;10.30;53.00
65044;DHT22;51617;48.158;16.464;2023-03-15T11:53:15;10.40;53.40
65044;DHT22;51617;48.158;16.464;2023-03-15T11:55:47;10.30;53.00
65044;DHT22;51617;48.158;16.464;2023-03-15T11:58:58;10.20;53.30
65044;DHT22;51617;48.158;16.464;2023-03-15T12:01:28;10.20;53.50
65044;DHT22;51617;48.158;16.464;2023-03-15T12:04:26;10.10;54.10
65044;DHT22;51617;48.158;16.464;2023-03-15T12:06:52;10.30;54.20
65044;DHT22;51617;48.158;16.464;2023-03-15T12:09:38;10.50;54.40
65044;DHT22;51617;48.158;16.464;2023-03-15T12:12:56;10.50;53.70
65044;DHT22;51617;48.158;16.464;2023-03-15T12:15:03;10.50;52.90
65044;DHT22;51617;48.158;16.464;2023-03-15T12:22:51;10.30;51.20
65044;DHT22;51617;48.158;16.464;2023-03-15T12:25:51;10.30;50.90
65044;DHT22;51617;48.158;16.464;2023-03-15T12:28:40;10.20;51.40
65044;DHT22;51617;48.158;16.464;2023-03-15T12:31:09;10.30;49.60
65044;DHT22;51617;48.158;16.464;2023-03-15T12:34:03;10.20;48.70
65044;DHT22;51617;48.158;16.464;2023-03-15T12:36:38;10.20;49.40
65044;DHT22;51617;48.158;16.464;2023-03-15T12:41:42;10.40;50.10
65044;DHT22;51617;48.158;16.464;2023-03-15T12:47:12;10.60;51.60
65044;DHT22;51617;48.158;16.464;2023-03-15T12:49:43;10.60;52.00
65044;DHT22;51617;48.158;16.464;2023-03-15T12:52:26;10.70;51.70
65044;DHT22;51617;48.158;16.464;2023-03-15T12:55:31;10.70;51.90
65044;DHT22;51617;48.158;16.464;2023-03-15T12:57:59;10.80;52.60
65044;DHT22;51617;48.158;16.464;2023-03-15T13:00:29;10.90;52.00
65044;DHT22;51617;48.158;16.464;2023-03-15T13:03:14;11.00;52.20
65044;DHT22;51617;48.158;16.464;2023-03-15T13:16:44;11.10;50.70
65044;DHT22;51617;48.158;16.464;2023-03-15T13:25:18;11.20;50.20
65044;DHT22;51617;48.158;16.464;2023-03-15T13:30:36;11.20;49.40
65044;DHT22;51617;48.158;16.464;2023-03-15T13:35:47;11.50;49.90
65044;DHT22;51617;48.158;16.464;2023-03-15T13:41:04;11.60;48.30
65044;DHT22;51617;48.158;16.464;2023-03-15T13:43:36;11.50;48.50
65044;DHT22;51617;48.158;16.464;2023-03-15T13:46:03;11.50;49.00
65044;DHT22;51617;48.158;16.464;2023-03-15T13:48:31;11.60;48.10
65044;DHT22;51617;48.158;16.464;2023-03-15T13:51:16;11.70;47.90
65044;DHT22;51617;48.158;16.464;2023-03-15T13:53:44;11.70;47.30
65044;DHT22;51617;48.158;16.464;2023-03-15T13:56:15;11.80;47.80
65044;DHT22;51617;48.158;16.464;2023-03-15T13:58:42;12.00;47.20
65044;DHT22;51617;48.158;16.464;2023-03-15T14:01:10;12.10;47.00
65044;DHT22;51617;48.158;16.464;2023-03-15T14:03:40;12.10;45.90
65044;DHT22;51617;48.158;16.464;2023-03-15T14:06:11;11.90;45.90
65044;DHT22;51617;48.158;16.464;2023-03-15T14:08:38;11.80;46.40
65044;DHT22;51617;48.158;16.464;2023-03-15T14:13:52;11.70;46.10
65044;DHT22;51617;48.158;16.464;2023-03-15T14:16:41;11.60;46.50
65044;DHT22;51617;48.158;16.464;2023-03-15T14:19:28;11.50;46.80
65044;DHT22;51617;48.158;16.464;2023-03-15T14:21:56;11.30;46.90
65044;DHT22;51617;48.158;16.464;2023-03-15T14:24:37;11.40;47.00
65044;DHT22;51617;48.158;16.464;2023-03-15T14:27:33;11.30;47.20
65044;DHT22;51617;48.158;16.464;2023-03-15T14:30:00;11.50;46.00
65044;DHT22;51617;48.158;16.464;2023-03-15T14:32:32;11.50;46.10
65044;DHT22;51617;48.158;16.464;2023-03-15T14:34:59;11.50;45.80
65044;DHT22;51617;48.158;16.464;2023-03-15T14:37:38;11.60;45.40
65044;DHT22;51617;48.158;16.464;2023-03-15T14:42:43;11.80;45.10
65044;DHT22;51617;48.158;16.464;2023-03-15T14:45:09;11.70;45.10
65044;DHT22;51617;48.158;16.464;2023-03-15T14:47:40;11.80;45.10
65044;DHT22;51617;48.158;16.464;2023-03-15T14:50:15;11.90;45.10
65044;DHT22;51617;48.158;16.464;2023-03-15T14:52:42;11.90;45.20
65044;DHT22;51617;48.158;16.464;2023-03-15T14:55:13;12.00;45.70
65044;DHT22;51617;48.158;16.464;2023-03-15T14:57:39;12.00;44.30
65044;DHT22;51617;48.158;16.464;2023-03-15T15:00:05;12.10;44.20
65044;DHT22;51617;48.158;16.464;2023-03-15T15:02:35;12.10;44.60
65044;DHT22;51617;48.158;16.464;2023-03-15T15:05:03;12.00;44.50
65044;DHT22;51617;48.158;16.464;2023-03-15T15:07:34;12.00;44.50
65044;DHT22;51617;48.158;16.464;2023-03-15T15:10:00;12.10;45.20
65044;DHT22;51617;48.158;16.464;2023-03-15T15:12:26;12.20;44.80
65044;DHT22;51617;48.158;16.464;2023-03-15T15:14:51;12.40;44.80
65044;DHT22;51617;48.158;16.464;2023-03-15T15:17:17;12.40;44.60
65044;DHT22;51617;48.158;16.464;2023-03-15T15:19:43;12.40;45.10
65044;DHT22;51617;48.158;16.464;2023-03-15T15:22:10;12.40;44.80
65044;DHT22;51617;48.158;16.464;2023-03-15T15:24:35;12.50;44.60
65044;DHT22;51617;48.158;16.464;2023-03-15T15:27:01;12.30;45.40
65044;DHT22;51617;48.158;16.464;2023-03-15T15:29:27;12.30;45.30
65044;DHT22;51617;48.158;16.464;2023-03-15T15:31:53;12.10;45.30
65044;DHT22;51617;48.158;16.464;2023-03-15T15:34:19;11.90;44.90
65044;DHT22;51617;48.158;16.464;2023-03-15T15:36:45;11.60;45.30
65044;DHT22;51617;48.158;16.464;2023-03-15T15:39:21;11.40;45.30
65044;DHT22;51617;48.158;16.464;2023-03-15T15:41:47;11.30;46.20
65044;DHT22;51617;48.158;16.464;2023-03-15T15:44:15;11.20;46.60
65044;DHT22;51617;48.158;16.464;2023-03-15T15:46:41;11.20;46.80
65044;DHT22;51617;48.158;16.464;2023-03-15T15:49:07;11.20;46.50
65044;DHT22;51617;48.158;16.464;2023-03-15T15:51:39;11.20;46.70
65044;DHT22;51617;48.158;16.464;2023-03-15T15:54:12;11.30;46.90
65044;DHT22;51617;48.158;16.464;2023-03-15T15:56:43;11.30;47.10
65044;DHT22;51617;48.158;16.464;2023-03-15T15:59:13;11.30;47.20
65044;DHT22;51617;48.158;16.464;2023-03-15T16:01:40;11.30;47.50
65044;DHT22;51617;48.158;16.464;2023-03-15T16:04:06;11.20;47.80
65044;DHT22;51617;48.158;16.464;2023-03-15T16:06:32;11.10;48.00
65044;DHT22;51617;48.158;16.464;2023-03-15T16:08:58;11.00;48.30
65044;DHT22;51617;48.158;16.464;2023-03-15T16:11:24;10.90;48.50
65044;DHT22;51617;48.158;16.464;2023-03-15T16:13:52;10.70;48.60
65044;DHT22;51617;48.158;16.464;2023-03-15T16:16:21;10.70;49.50
65044;DHT22;51617;48.158;16.464;2023-03-15T16:18:47;10.70;48.90
65044;DHT22;51617;48.158;16.464;2023-03-15T16:23:56;10.80;49.10
65044;DHT22;51617;48.158;16.464;2023-03-15T16:26:23;10.70;48.80
65044;DHT22;51617;48.158;16.464;2023-03-15T16:28:49;10.60;47.90
65044;DHT22;51617;48.158;16.464;2023-03-15T16:31:20;10.50;48.00
65044;DHT22;51617;48.158;16.464;2023-03-15T16:33:47;10.40;48.30
65044;DHT22;51617;48.158;16.464;2023-03-15T16:36:18;10.30;48.30
65044;DHT22;51617;48.158;16.464;2023-03-15T16:38:46;10.30;48.10
65044;DHT22;51617;48.158;16.464;2023-03-15T16:41:14;10.20;48.00
65044;DHT22;51617;48.158;16.464;2023-03-15T16:43:41;10.10;48.30
65044;DHT22;51617;48.158;16.464;2023-03-15T16:46:16;10.10;48.50
65044;DHT22;51617;48.158;16.464;2023-03-15T16:48:42;10.10;48.90